sensor_id;sensor_type;location;lat;lon;timestamp;P1;durP1;ratioP1;P2;durP2;ratioP2
41875;SDS011;27555;50.808;4.402;2023-09-19T00:01:39;9.10;;;2.03;;
41875;SDS011;27555;50.808;4.402;2023-09-19T00:04:06;12.70;;;1.73;;
41875;SDS011;27555;50.808;4.402;2023-09-19T00:06:35;14.40;;;2.22;;
41875;SDS011;27555;50.808;4.402;2023-09-19T00:09:03;13.65;;;2.33;;
41875;SDS011;27555;50.808;4.402;2023-09-19T00:11:29;11.77;;;1.95;;
41875;SDS011;27555;50.808;4.402;2023-09-19T00:13:56;13.40;;;2.33;;
41875;SDS011;27555;50.808;4.402;2023-09-19T00:16:22;8.25;;;1.70;;
41875;SDS011;27555;50.808;4.402;2023-09-19T00:18:48;10.32;;;1.95;;
41875;SDS011;27555;50.808;4.402;2023-09-19T00:21:14;12.88;;;2.72;;
41875;SDS011;27555;50.808;4.402;2023-09-19T00:23:40;14.15;;;2.05;;
41875;SDS011;27555;50.808;4.402;2023-09-19T00:26:06;11.80;;;2.75;;
41875;SDS011;27555;50.808;4.402;2023-09-19T00:28:32;16.67;;;4.00;;
41875;SDS011;27555;50.808;4.402;2023-09-19T00:30:58;8.65;;;2.00;;
41875;SDS011;27555;50.808;4.402;2023-09-19T00:33:26;9.05;;;2.03;;
41875;SDS011;27555;50.808;4.402;2023-09-19T00:35:54;11.32;;;2.85;;
41875;SDS011;27555;50.808;4.402;2023-09-19T00:38:22;11.23;;;1.70;;
41875;SDS011;27555;50.808;4.402;2023-09-19T00:40:52;13.00;;;2.17;;
41875;SDS011;27555;50.808;4.402;2023-09-19T00:43:18;17.55;;;2.60;;
41875;SDS011;27555;50.808;4.402;2023-09-19T00:45:45;8.57;;;1.98;;
41875;SDS011;27555;50.808;4.402;2023-09-19T00:48:13;13.18;;;2.38;;
41875;SDS011;27555;50.808;4.402;2023-09-19T00:50:40;9.02;;;2.30;;
41875;SDS011;27555;50.808;4.402;2023-09-19T00:53:09;14.32;;;2.15;;
41875;SDS011;27555;50.808;4.402;2023-09-19T00:55:39;10.07;;;2.70;;
41875;SDS011;27555;50.808;4.402;2023-09-19T00:58:05;9.98;;;1.90;;
41875;SDS011;27555;50.808;4.402;2023-09-19T01:00:31;16.10;;;1.90;;
41875;SDS011;27555;50.808;4.402;2023-09-19T01:02:59;13.00;;;2.22;;
41875;SDS011;27555;50.808;4.402;2023-09-19T01:05:27;7.65;;;2.20;;
41875;SDS011;27555;50.808;4.402;2023-09-19T01:07:53;10.13;;;2.05;;
41875;SDS011;27555;50.808;4.402;2023-09-19T01:10:19;12.30;;;2.40;;
41875;SDS011;27555;50.808;4.402;2023-09-19T01:21:05;15.93;;;2.05;;
41875;SDS011;27555;50.808;4.402;2023-09-19T01:26:35;8.75;;;2.15;;
41875;SDS011;27555;50.808;4.402;2023-09-19T01:29:39;15.10;;;2.95;;
41875;SDS011;27555;50.808;4.402;2023-09-19T01:32:09;8.45;;;1.70;;
41875;SDS011;27555;50.808;4.402;2023-09-19T01:34:49;11.57;;;1.83;;
41875;SDS011;27555;50.808;4.402;2023-09-19T01:37:15;14.35;;;2.08;;
41875;SDS011;27555;50.808;4.402;2023-09-19T01:39:48;11.43;;;2.15;;
41875;SDS011;27555;50.808;4.402;2023-09-19T01:47:50;10.63;;;2.08;;
41875;SDS011;27555;50.808;4.402;2023-09-19T01:50:29;10.93;;;2.08;;
41875;SDS011;27555;50.808;4.402;2023-09-19T01:53:02;15.10;;;2.30;;
41875;SDS011;27555;50.808;4.402;2023-09-19T01:55:34;16.10;;;2.53;;
41875;SDS011;27555;50.808;4.402;2023-09-19T01:58:08;12.25;;;2.35;;
41875;SDS011;27555;50.808;4.402;2023-09-19T02:00:41;18.70;;;3.38;;
41875;SDS011;27555;50.808;4.402;2023-09-19T02:03:09;13.57;;;2.28;;
41875;SDS011;27555;50.808;4.402;2023-09-19T02:05:36;12.73;;;3.10;;
41875;SDS011;27555;50.808;4.402;2023-09-19T02:08:04;10.30;;;2.28;;
41875;SDS011;27555;50.808;4.402;2023-09-19T02:10:30;17.02;;;2.60;;
41875;SDS011;27555;50.808;4.402;2023-09-19T02:12:55;13.82;;;2.50;;
41875;SDS011;27555;50.808;4.402;2023-09-19T02:15:21;12.23;;;2.53;;
41875;SDS011;27555;50.808;4.402;2023-09-19T02:17:47;10.07;;;2.13;;
41875;SDS011;27555;50.808;4.402;2023-09-19T02:20:13;18.90;;;3.20;;
41875;SDS011;27555;50.808;4.402;2023-09-19T02:22:40;10.75;;;2.25;;
41875;SDS011;27555;50.808;4.402;2023-09-19T02:25:07;9.93;;;2.58;;
41875;SDS011;27555;50.808;4.402;2023-09-19T02:27:33;12.60;;;2.85;;
41875;SDS011;27555;50.808;4.402;2023-09-19T02:29:59;15.48;;;3.20;;
41875;SDS011;27555;50.808;4.402;2023-09-19T02:32:28;9.77;;;1.80;;
41875;SDS011;27555;50.808;4.402;2023-09-19T02:34:57;15.18;;;2.47;;
41875;SDS011;27555;50.808;4.402;2023-09-19T02:37:29;20.65;;;3.10;;
41875;SDS011;27555;50.808;4.402;2023-09-19T02:39:54;9.45;;;2.25;;
41875;SDS011;27555;50.808;4.402;2023-09-19T02:42:22;14.48;;;2.42;;
41875;SDS011;27555;50.808;4.402;2023-09-19T02:44:48;18.88;;;2.67;;
41875;SDS011;27555;50.808;4.402;2023-09-19T02:47:13;9.40;;;2.60;;
41875;SDS011;27555;50.808;4.402;2023-09-19T02:49:40;16.15;;;3.17;;
41875;SDS011;27555;50.808;4.402;2023-09-19T02:52:07;17.30;;;3.00;;
41875;SDS011;27555;50.808;4.402;2023-09-19T02:54:33;11.02;;;2.10;;
41875;SDS011;27555;50.808;4.402;2023-09-19T02:56:58;11.75;;;2.65;;
41875;SDS011;27555;50.808;4.402;2023-09-19T02:59:24;12.93;;;2.58;;
41875;SDS011;27555;50.808;4.402;2023-09-19T03:01:51;13.30;;;2.28;;
41875;SDS011;27555;50.808;4.402;2023-09-19T03:04:19;10.30;;;1.90;;
41875;SDS011;27555;50.808;4.402;2023-09-19T03:06:45;11.25;;;1.65;;
41875;SDS011;27555;50.808;4.402;2023-09-19T03:09:11;14.00;;;2.72;;
41875;SDS011;27555;50.808;4.402;2023-09-19T03:11:36;12.40;;;2.22;;
41875;SDS011;27555;50.808;4.402;2023-09-19T03:14:05;15.85;;;2.50;;
41875;SDS011;27555;50.808;4.402;2023-09-19T03:16:31;10.80;;;2.22;;
41875;SDS011;27555;50.808;4.402;2023-09-19T03:18:56;13.35;;;2.30;;
41875;SDS011;27555;50.808;4.402;2023-09-19T03:21:23;9.85;;;2.65;;
41875;SDS011;27555;50.808;4.402;2023-09-19T03:23:49;18.02;;;2.72;;
41875;SDS011;27555;50.808;4.402;2023-09-19T03:26:15;9.95;;;2.78;;
41875;SDS011;27555;50.808;4.402;2023-09-19T03:28:41;8.95;;;2.08;;
41875;SDS011;27555;50.808;4.402;2023-09-19T03:31:08;13.15;;;2.22;;
41875;SDS011;27555;50.808;4.402;2023-09-19T03:33:34;11.25;;;2.00;;
41875;SDS011;27555;50.808;4.402;2023-09-19T03:36:01;12.77;;;2.53;;
41875;SDS011;27555;50.808;4.402;2023-09-19T03:38:29;14.10;;;2.70;;
41875;SDS011;27555;50.808;4.402;2023-09-19T03:40:57;17.75;;;2.53;;
41875;SDS011;27555;50.808;4.402;2023-09-19T03:43:22;6.50;;;1.70;;
41875;SDS011;27555;50.808;4.402;2023-09-19T03:45:48;15.95;;;2.35;;
41875;SDS011;27555;50.808;4.402;2023-09-19T03:48:15;8.55;;;1.92;;
41875;SDS011;27555;50.808;4.402;2023-09-19T03:50:42;17.95;;;2.92;;
41875;SDS011;27555;50.808;4.402;2023-09-19T03:53:09;9.50;;;2.55;;
41875;SDS011;27555;50.808;4.402;2023-09-19T03:55:34;19.80;;;3.83;;
41875;SDS011;27555;50.808;4.402;2023-09-19T03:58:00;12.25;;;2.05;;
41875;SDS011;27555;50.808;4.402;2023-09-19T04:00:27;13.18;;;3.13;;
41875;SDS011;27555;50.808;4.402;2023-09-19T04:02:54;12.95;;;2.45;;
41875;SDS011;27555;50.808;4.402;2023-09-19T04:05:21;15.38;;;2.90;;
41875;SDS011;27555;50.808;4.402;2023-09-19T04:07:47;13.15;;;2.75;;
41875;SDS011;27555;50.808;4.402;2023-09-19T04:10:13;11.80;;;1.67;;
41875;SDS011;27555;50.808;4.402;2023-09-19T04:12:40;10.40;;;2.58;;
41875;SDS011;27555;50.808;4.402;2023-09-19T04:15:06;14.18;;;2.28;;
41875;SDS011;27555;50.808;4.402;2023-09-19T04:17:32;16.95;;;2.28;;
41875;SDS011;27555;50.808;4.402;2023-09-19T04:19:58;17.17;;;3.10;;
41875;SDS011;27555;50.808;4.402;2023-09-19T04:22:24;9.10;;;1.67;;
41875;SDS011;27555;50.808;4.402;2023-09-19T04:24:50;14.45;;;2.65;;
41875;SDS011;27555;50.808;4.402;2023-09-19T04:27:15;19.73;;;3.03;;
41875;SDS011;27555;50.808;4.402;2023-09-19T04:29:41;12.88;;;2.42;;
41875;SDS011;27555;50.808;4.402;2023-09-19T04:32:07;16.40;;;2.95;;
41875;SDS011;27555;50.808;4.402;2023-09-19T04:34:34;11.45;;;2.05;;
41875;SDS011;27555;50.808;4.402;2023-09-19T04:37:00;12.77;;;2.60;;
41875;SDS011;27555;50.808;4.402;2023-09-19T04:39:27;13.80;;;2.53;;
41875;SDS011;27555;50.808;4.402;2023-09-19T04:41:55;14.00;;;2.25;;
41875;SDS011;27555;50.808;4.402;2023-09-19T04:44:25;12.73;;;1.73;;
41875;SDS011;27555;50.808;4.402;2023-09-19T04:46:50;15.43;;;3.67;;
41875;SDS011;27555;50.808;4.402;2023-09-19T04:49:17;15.77;;;2.38;;
41875;SDS011;27555;50.808;4.402;2023-09-19T04:51:43;7.93;;;1.67;;
41875;SDS011;27555;50.808;4.402;2023-09-19T04:54:12;12.43;;;2.78;;
41875;SDS011;27555;50.808;4.402;2023-09-19T04:56:38;15.45;;;2.33;;
41875;SDS011;27555;50.808;4.402;2023-09-19T04:59:05;12.40;;;1.67;;
41875;SDS011;27555;50.808;4.402;2023-09-19T05:01:32;13.10;;;2.15;;
41875;SDS011;27555;50.808;4.402;2023-09-19T05:03:58;17.00;;;2.67;;
41875;SDS011;27555;50.808;4.402;2023-09-19T05:06:23;9.80;;;2.30;;
41875;SDS011;27555;50.808;4.402;2023-09-19T05:08:51;15.57;;;2.00;;
41875;SDS011;27555;50.808;4.402;2023-09-19T05:11:18;10.48;;;1.88;;
41875;SDS011;27555;50.808;4.402;2023-09-19T05:13:48;17.80;;;2.08;;
41875;SDS011;27555;50.808;4.402;2023-09-19T05:16:15;12.63;;;1.80;;
41875;SDS011;27555;50.808;4.402;2023-09-19T05:18:41;13.40;;;2.30;;
41875;SDS011;27555;50.808;4.402;2023-09-19T05:21:07;16.85;;;2.22;;
41875;SDS011;27555;50.808;4.402;2023-09-19T05:23:33;14.15;;;2.30;;
41875;SDS011;27555;50.808;4.402;2023-09-19T05:25:59;8.45;;;1.95;;
41875;SDS011;27555;50.808;4.402;2023-09-19T05:28:25;9.82;;;1.90;;
41875;SDS011;27555;50.808;4.402;2023-09-19T05:30:56;15.98;;;3.03;;
41875;SDS011;27555;50.808;4.402;2023-09-19T05:33:23;14.57;;;2.47;;
41875;SDS011;27555;50.808;4.402;2023-09-19T05:35:49;9.13;;;1.52;;
41875;SDS011;27555;50.808;4.402;2023-09-19T05:38:15;18.15;;;2.33;;
41875;SDS011;27555;50.808;4.402;2023-09-19T05:40:44;8.65;;;1.80;;
41875;SDS011;27555;50.808;4.402;2023-09-19T05:43:10;15.80;;;3.15;;
41875;SDS011;27555;50.808;4.402;2023-09-19T05:45:36;11.45;;;2.13;;
41875;SDS011;27555;50.808;4.402;2023-09-19T05:48:13;8.32;;;1.98;;
41875;SDS011;27555;50.808;4.402;2023-09-19T05:50:40;9.45;;;2.20;;
41875;SDS011;27555;50.808;4.402;2023-09-19T05:53:06;13.15;;;1.92;;
41875;SDS011;27555;50.808;4.402;2023-09-19T05:55:32;8.05;;;1.70;;
41875;SDS011;27555;50.808;4.402;2023-09-19T05:57:58;14.05;;;2.47;;
41875;SDS011;27555;50.808;4.402;2023-09-19T06:00:24;10.93;;;1.92;;
41875;SDS011;27555;50.808;4.402;2023-09-19T06:05:19;12.50;;;1.92;;
41875;SDS011;27555;50.808;4.402;2023-09-19T06:07:46;10.95;;;2.67;;
41875;SDS011;27555;50.808;4.402;2023-09-19T06:10:11;11.60;;;2.60;;
41875;SDS011;27555;50.808;4.402;2023-09-19T06:12:41;9.77;;;2.38;;
41875;SDS011;27555;50.808;4.402;2023-09-19T06:15:10;15.07;;;2.03;;
41875;SDS011;27555;50.808;4.402;2023-09-19T06:17:50;11.32;;;2.60;;
41875;SDS011;27555;50.808;4.402;2023-09-19T06:20:24;13.88;;;2.08;;
41875;SDS011;27555;50.808;4.402;2023-09-19T06:22:51;17.08;;;3.17;;
41875;SDS011;27555;50.808;4.402;2023-09-19T06:25:17;19.95;;;3.08;;
41875;SDS011;27555;50.808;4.402;2023-09-19T06:27:50;10.98;;;2.03;;
41875;SDS011;27555;50.808;4.402;2023-09-19T06:30:21;11.00;;;1.60;;
41875;SDS011;27555;50.808;4.402;2023-09-19T06:32:57;12.45;;;1.85;;
41875;SDS011;27555;50.808;4.402;2023-09-19T06:35:24;14.63;;;2.47;;
41875;SDS011;27555;50.808;4.402;2023-09-19T06:37:51;12.30;;;1.33;;
41875;SDS011;27555;50.808;4.402;2023-09-19T06:40:17;10.27;;;2.17;;
41875;SDS011;27555;50.808;4.402;2023-09-19T06:42:47;11.55;;;1.95;;
41875;SDS011;27555;50.808;4.402;2023-09-19T06:45:17;11.15;;;1.73;;
41875;SDS011;27555;50.808;4.402;2023-09-19T06:47:44;12.10;;;1.90;;
41875;SDS011;27555;50.808;4.402;2023-09-19T06:50:10;15.73;;;1.73;;
41875;SDS011;27555;50.808;4.402;2023-09-19T06:52:42;13.40;;;2.92;;
41875;SDS011;27555;50.808;4.402;2023-09-19T06:55:08;11.18;;;2.08;;
41875;SDS011;27555;50.808;4.402;2023-09-19T06:57:38;10.23;;;3.13;;
41875;SDS011;27555;50.808;4.402;2023-09-19T07:00:06;9.35;;;1.92;;
41875;SDS011;27555;50.808;4.402;2023-09-19T07:02:59;14.15;;;1.73;;
41875;SDS011;27555;50.808;4.402;2023-09-19T07:05:29;10.27;;;1.95;;
41875;SDS011;27555;50.808;4.402;2023-09-19T07:07:59;9.30;;;2.03;;
41875;SDS011;27555;50.808;4.402;2023-09-19T07:10:26;12.95;;;2.47;;
41875;SDS011;27555;50.808;4.402;2023-09-19T07:12:58;12.40;;;2.28;;
41875;SDS011;27555;50.808;4.402;2023-09-19T07:15:24;8.50;;;1.60;;
41875;SDS011;27555;50.808;4.402;2023-09-19T07:17:54;6.95;;;2.10;;
41875;SDS011;27555;50.808;4.402;2023-09-19T07:22:47;13.52;;;2.95;;
41875;SDS011;27555;50.808;4.402;2023-09-19T07:25:15;11.45;;;2.45;;
41875;SDS011;27555;50.808;4.402;2023-09-19T07:27:41;12.32;;;1.80;;
41875;SDS011;27555;50.808;4.402;2023-09-19T07:30:08;8.65;;;1.77;;
41875;SDS011;27555;50.808;4.402;2023-09-19T07:32:35;9.52;;;2.28;;
41875;SDS011;27555;50.808;4.402;2023-09-19T07:35:04;11.35;;;1.90;;
41875;SDS011;27555;50.808;4.402;2023-09-19T07:37:31;7.72;;;1.67;;
41875;SDS011;27555;50.808;4.402;2023-09-19T07:39:58;14.18;;;2.25;;
41875;SDS011;27555;50.808;4.402;2023-09-19T07:42:26;22.27;;;3.17;;
41875;SDS011;27555;50.808;4.402;2023-09-19T07:44:52;14.82;;;2.20;;
41875;SDS011;27555;50.808;4.402;2023-09-19T07:47:19;8.02;;;1.77;;
41875;SDS011;27555;50.808;4.402;2023-09-19T07:49:47;9.02;;;2.17;;
41875;SDS011;27555;50.808;4.402;2023-09-19T07:52:13;13.45;;;1.77;;
41875;SDS011;27555;50.808;4.402;2023-09-19T07:54:39;11.88;;;2.65;;
41875;SDS011;27555;50.808;4.402;2023-09-19T07:57:06;16.27;;;2.67;;
41875;SDS011;27555;50.808;4.402;2023-09-19T07:59:32;16.25;;;2.35;;
41875;SDS011;27555;50.808;4.402;2023-09-19T08:01:58;8.68;;;1.63;;
41875;SDS011;27555;50.808;4.402;2023-09-19T08:04:24;8.75;;;1.75;;
41875;SDS011;27555;50.808;4.402;2023-09-19T08:06:57;12.05;;;2.05;;
41875;SDS011;27555;50.808;4.402;2023-09-19T08:09:25;13.05;;;2.20;;
41875;SDS011;27555;50.808;4.402;2023-09-19T08:11:51;12.32;;;2.20;;
41875;SDS011;27555;50.808;4.402;2023-09-19T08:14:17;12.20;;;2.30;;
41875;SDS011;27555;50.808;4.402;2023-09-19T08:16:43;15.60;;;2.33;;
41875;SDS011;27555;50.808;4.402;2023-09-19T08:19:12;11.73;;;2.72;;
41875;SDS011;27555;50.808;4.402;2023-09-19T08:21:37;13.18;;;2.53;;
41875;SDS011;27555;50.808;4.402;2023-09-19T08:24:03;11.60;;;2.10;;
41875;SDS011;27555;50.808;4.402;2023-09-19T08:26:29;12.23;;;2.15;;
41875;SDS011;27555;50.808;4.402;2023-09-19T08:28:56;10.85;;;2.28;;
41875;SDS011;27555;50.808;4.402;2023-09-19T08:31:22;10.73;;;2.55;;
41875;SDS011;27555;50.808;4.402;2023-09-19T08:33:49;8.40;;;1.98;;
41875;SDS011;27555;50.808;4.402;2023-09-19T08:36:16;12.95;;;2.63;;
41875;SDS011;27555;50.808;4.402;2023-09-19T08:38:42;16.58;;;3.17;;
41875;SDS011;27555;50.808;4.402;2023-09-19T08:41:07;11.63;;;2.03;;
41875;SDS011;27555;50.808;4.402;2023-09-19T08:43:33;7.50;;;1.95;;
41875;SDS011;27555;50.808;4.402;2023-09-19T08:46:18;8.82;;;1.90;;
41875;SDS011;27555;50.808;4.402;2023-09-19T08:48:46;13.13;;;2.47;;
41875;SDS011;27555;50.808;4.402;2023-09-19T08:51:40;15.90;;;2.50;;
41875;SDS011;27555;50.808;4.402;2023-09-19T08:54:20;7.68;;;1.77;;
41875;SDS011;27555;50.808;4.402;2023-09-19T08:56:51;8.80;;;2.42;;
41875;SDS011;27555;50.808;4.402;2023-09-19T08:59:21;9.13;;;1.85;;
41875;SDS011;27555;50.808;4.402;2023-09-19T09:01:50;16.85;;;2.67;;
41875;SDS011;27555;50.808;4.402;2023-09-19T09:04:19;8.40;;;1.80;;
41875;SDS011;27555;50.808;4.402;2023-09-19T09:06:45;13.80;;;1.83;;
41875;SDS011;27555;50.808;4.402;2023-09-19T09:09:14;18.05;;;2.92;;
41875;SDS011;27555;50.808;4.402;2023-09-19T09:11:40;5.60;;;2.03;;
41875;SDS011;27555;50.808;4.402;2023-09-19T09:14:07;6.72;;;1.48;;
41875;SDS011;27555;50.808;4.402;2023-09-19T09:16:33;7.50;;;1.60;;
41875;SDS011;27555;50.808;4.402;2023-09-19T09:18:59;9.52;;;2.08;;
41875;SDS011;27555;50.808;4.402;2023-09-19T09:21:26;9.90;;;1.73;;
41875;SDS011;27555;50.808;4.402;2023-09-19T09:23:52;9.15;;;2.13;;
41875;SDS011;27555;50.808;4.402;2023-09-19T09:26:40;14.80;;;2.30;;
41875;SDS011;27555;50.808;4.402;2023-09-19T09:29:07;10.60;;;2.35;;
41875;SDS011;27555;50.808;4.402;2023-09-19T09:31:33;12.48;;;2.08;;
41875;SDS011;27555;50.808;4.402;2023-09-19T09:33:59;8.20;;;1.80;;
41875;SDS011;27555;50.808;4.402;2023-09-19T09:36:39;7.72;;;1.65;;
41875;SDS011;27555;50.808;4.402;2023-09-19T09:39:08;6.78;;;1.58;;
41875;SDS011;27555;50.808;4.402;2023-09-19T09:41:44;9.43;;;1.80;;
41875;SDS011;27555;50.808;4.402;2023-09-19T09:44:14;8.30;;;1.70;;
41875;SDS011;27555;50.808;4.402;2023-09-19T09:46:42;8.73;;;1.60;;
41875;SDS011;27555;50.808;4.402;2023-09-19T09:49:21;6.18;;;1.40;;
41875;SDS011;27555;50.808;4.402;2023-09-19T09:52:01;11.00;;;2.53;;
41875;SDS011;27555;50.808;4.402;2023-09-19T09:55:00;9.00;;;1.70;;
41875;SDS011;27555;50.808;4.402;2023-09-19T09:57:36;6.57;;;1.77;;
41875;SDS011;27555;50.808;4.402;2023-09-19T10:00:06;7.20;;;1.95;;
41875;SDS011;27555;50.808;4.402;2023-09-19T10:02:46;4.68;;;1.20;;
41875;SDS011;27555;50.808;4.402;2023-09-19T10:08:11;9.23;;;1.50;;
41875;SDS011;27555;50.808;4.402;2023-09-19T10:10:44;9.30;;;2.03;;
41875;SDS011;27555;50.808;4.402;2023-09-19T10:13:28;6.55;;;1.88;;
41875;SDS011;27555;50.808;4.402;2023-09-19T10:15:56;5.47;;;1.33;;
41875;SDS011;27555;50.808;4.402;2023-09-19T10:18:29;6.72;;;1.58;;
41875;SDS011;27555;50.808;4.402;2023-09-19T10:20:57;5.82;;;1.95;;
41875;SDS011;27555;50.808;4.402;2023-09-19T10:23:29;4.25;;;0.95;;
41875;SDS011;27555;50.808;4.402;2023-09-19T10:25:59;14.95;;;1.55;;
41875;SDS011;27555;50.808;4.402;2023-09-19T10:28:27;7.68;;;2.10;;
41875;SDS011;27555;50.808;4.402;2023-09-19T10:30:55;5.22;;;1.42;;
41875;SDS011;27555;50.808;4.402;2023-09-19T10:33:23;6.20;;;1.98;;
41875;SDS011;27555;50.808;4.402;2023-09-19T10:35:55;8.60;;;1.50;;
41875;SDS011;27555;50.808;4.402;2023-09-19T10:40:52;9.68;;;2.03;;
41875;SDS011;27555;50.808;4.402;2023-09-19T10:43:20;4.82;;;1.48;;
41875;SDS011;27555;50.808;4.402;2023-09-19T10:45:50;3.65;;;0.90;;
41875;SDS011;27555;50.808;4.402;2023-09-19T10:48:18;6.90;;;1.58;;
41875;SDS011;27555;50.808;4.402;2023-09-19T10:50:52;3.35;;;0.95;;
41875;SDS011;27555;50.808;4.402;2023-09-19T10:53:54;4.55;;;1.63;;
41875;SDS011;27555;50.808;4.402;2023-09-19T10:56:35;5.03;;;1.50;;
41875;SDS011;27555;50.808;4.402;2023-09-19T10:59:09;2.92;;;1.00;;
41875;SDS011;27555;50.808;4.402;2023-09-19T11:02:15;4.00;;;1.10;;
41875;SDS011;27555;50.808;4.402;2023-09-19T11:04:40;6.15;;;0.93;;
41875;SDS011;27555;50.808;4.402;2023-09-19T11:07:08;6.70;;;1.08;;
41875;SDS011;27555;50.808;4.402;2023-09-19T11:12:11;2.35;;;1.00;;
41875;SDS011;27555;50.808;4.402;2023-09-19T11:14:38;4.45;;;0.90;;
41875;SDS011;27555;50.808;4.402;2023-09-19T11:20:15;4.50;;;0.80;;
41875;SDS011;27555;50.808;4.402;2023-09-19T11:30:37;8.40;;;1.13;;
41875;SDS011;27555;50.808;4.402;2023-09-19T11:36:04;6.57;;;0.70;;
41875;SDS011;27555;50.808;4.402;2023-09-19T11:43:50;3.60;;;0.80;;
41875;SDS011;27555;50.808;4.402;2023-09-19T11:46:17;3.30;;;0.70;;
41875;SDS011;27555;50.808;4.402;2023-09-19T11:48:49;4.72;;;0.95;;
41875;SDS011;27555;50.808;4.402;2023-09-19T11:51:16;6.72;;;0.98;;
41875;SDS011;27555;50.808;4.402;2023-09-19T11:53:56;5.13;;;1.30;;
41875;SDS011;27555;50.808;4.402;2023-09-19T11:56:25;5.95;;;0.95;;
41875;SDS011;27555;50.808;4.402;2023-09-19T11:58:53;4.47;;;0.70;;
41875;SDS011;27555;50.808;4.402;2023-09-19T12:01:32;7.28;;;1.00;;
41875;SDS011;27555;50.808;4.402;2023-09-19T12:04:01;8.10;;;1.65;;
41875;SDS011;27555;50.808;4.402;2023-09-19T12:06:30;3.35;;;0.90;;
41875;SDS011;27555;50.808;4.402;2023-09-19T12:08:57;6.03;;;0.82;;
41875;SDS011;27555;50.808;4.402;2023-09-19T12:11:30;6.38;;;1.42;;
41875;SDS011;27555;50.808;4.402;2023-09-19T12:14:01;6.10;;;1.23;;
41875;SDS011;27555;50.808;4.402;2023-09-19T12:16:27;8.50;;;0.73;;
41875;SDS011;27555;50.808;4.402;2023-09-19T12:18:58;6.47;;;1.08;;
41875;SDS011;27555;50.808;4.402;2023-09-19T12:21:52;2.80;;;1.00;;
41875;SDS011;27555;50.808;4.402;2023-09-19T12:24:24;6.72;;;0.95;;
41875;SDS011;27555;50.808;4.402;2023-09-19T12:26:54;5.70;;;0.90;;
41875;SDS011;27555;50.808;4.402;2023-09-19T12:29:26;6.90;;;1.05;;
41875;SDS011;27555;50.808;4.402;2023-09-19T12:34:31;14.32;;;1.95;;
41875;SDS011;27555;50.808;4.402;2023-09-19T12:37:16;5.95;;;1.08;;
41875;SDS011;27555;50.808;4.402;2023-09-19T12:40:03;5.55;;;0.77;;
41875;SDS011;27555;50.808;4.402;2023-09-19T12:42:42;5.68;;;1.63;;
41875;SDS011;27555;50.808;4.402;2023-09-19T12:45:09;8.18;;;0.73;;
41875;SDS011;27555;50.808;4.402;2023-09-19T12:47:38;3.50;;;0.52;;
41875;SDS011;27555;50.808;4.402;2023-09-19T12:52:42;7.82;;;0.80;;
41875;SDS011;27555;50.808;4.402;2023-09-19T12:57:56;3.22;;;0.75;;
41875;SDS011;27555;50.808;4.402;2023-09-19T13:00:36;6.05;;;0.77;;
41875;SDS011;27555;50.808;4.402;2023-09-19T13:03:36;8.27;;;1.27;;
41875;SDS011;27555;50.808;4.402;2023-09-19T13:11:02;6.43;;;1.15;;
41875;SDS011;27555;50.808;4.402;2023-09-19T13:13:37;6.60;;;1.27;;
41875;SDS011;27555;50.808;4.402;2023-09-19T13:16:10;4.90;;;1.08;;
41875;SDS011;27555;50.808;4.402;2023-09-19T13:19:12;3.53;;;1.00;;
41875;SDS011;27555;50.808;4.402;2023-09-19T13:21:32;11.18;;;1.45;;
41875;SDS011;27555;50.808;4.402;2023-09-19T13:26:48;8.55;;;1.50;;
41875;SDS011;27555;50.808;4.402;2023-09-19T13:29:14;3.28;;;1.08;;
41875;SDS011;27555;50.808;4.402;2023-09-19T13:31:45;4.85;;;1.25;;
41875;SDS011;27555;50.808;4.402;2023-09-19T13:34:11;5.95;;;1.15;;
41875;SDS011;27555;50.808;4.402;2023-09-19T13:36:39;6.70;;;1.20;;
41875;SDS011;27555;50.808;4.402;2023-09-19T13:39:04;6.82;;;1.17;;
41875;SDS011;27555;50.808;4.402;2023-09-19T13:41:31;5.18;;;1.08;;
41875;SDS011;27555;50.808;4.402;2023-09-19T13:43:57;12.10;;;1.42;;
41875;SDS011;27555;50.808;4.402;2023-09-19T13:46:23;4.35;;;1.00;;
41875;SDS011;27555;50.808;4.402;2023-09-19T13:48:51;3.58;;;0.88;;
41875;SDS011;27555;50.808;4.402;2023-09-19T13:51:20;6.75;;;1.23;;
41875;SDS011;27555;50.808;4.402;2023-09-19T13:53:48;2.45;;;0.70;;
41875;SDS011;27555;50.808;4.402;2023-09-19T13:56:15;3.67;;;0.82;;
41875;SDS011;27555;50.808;4.402;2023-09-19T13:58:41;6.28;;;0.80;;
41875;SDS011;27555;50.808;4.402;2023-09-19T14:01:07;6.20;;;0.80;;
41875;SDS011;27555;50.808;4.402;2023-09-19T14:03:37;3.75;;;0.90;;
41875;SDS011;27555;50.808;4.402;2023-09-19T14:06:12;9.75;;;1.45;;
41875;SDS011;27555;50.808;4.402;2023-09-19T14:08:38;4.10;;;0.80;;
41875;SDS011;27555;50.808;4.402;2023-09-19T14:11:07;11.77;;;0.98;;
41875;SDS011;27555;50.808;4.402;2023-09-19T14:13:34;2.92;;;0.60;;
41875;SDS011;27555;50.808;4.402;2023-09-19T14:16:03;3.70;;;1.10;;
41875;SDS011;27555;50.808;4.402;2023-09-19T14:18:30;2.83;;;0.75;;
41875;SDS011;27555;50.808;4.402;2023-09-19T14:20:56;7.75;;;1.10;;
41875;SDS011;27555;50.808;4.402;2023-09-19T14:23:22;4.70;;;0.93;;
41875;SDS011;27555;50.808;4.402;2023-09-19T14:25:48;8.90;;;1.90;;
41875;SDS011;27555;50.808;4.402;2023-09-19T14:28:15;4.13;;;0.80;;
41875;SDS011;27555;50.808;4.402;2023-09-19T14:30:40;5.47;;;1.00;;
41875;SDS011;27555;50.808;4.402;2023-09-19T14:33:06;2.85;;;1.00;;
41875;SDS011;27555;50.808;4.402;2023-09-19T14:35:32;5.35;;;0.93;;
41875;SDS011;27555;50.808;4.402;2023-09-19T14:37:58;5.20;;;1.23;;
41875;SDS011;27555;50.808;4.402;2023-09-19T14:40:23;4.93;;;1.05;;
41875;SDS011;27555;50.808;4.402;2023-09-19T14:42:50;8.25;;;1.23;;
41875;SDS011;27555;50.808;4.402;2023-09-19T14:45:16;5.95;;;1.33;;
41875;SDS011;27555;50.808;4.402;2023-09-19T14:47:43;7.05;;;1.00;;
41875;SDS011;27555;50.808;4.402;2023-09-19T14:50:11;4.20;;;1.25;;
41875;SDS011;27555;50.808;4.402;2023-09-19T14:52:37;5.60;;;0.88;;
41875;SDS011;27555;50.808;4.402;2023-09-19T14:55:05;5.00;;;1.20;;
41875;SDS011;27555;50.808;4.402;2023-09-19T14:57:31;4.00;;;1.15;;
41875;SDS011;27555;50.808;4.402;2023-09-19T14:59:58;5.05;;;1.30;;
41875;SDS011;27555;50.808;4.402;2023-09-19T15:02:25;3.92;;;1.23;;
41875;SDS011;27555;50.808;4.402;2023-09-19T15:04:51;7.28;;;1.08;;
41875;SDS011;27555;50.808;4.402;2023-09-19T15:07:17;6.55;;;1.88;;
41875;SDS011;27555;50.808;4.402;2023-09-19T15:09:43;5.10;;;1.23;;
41875;SDS011;27555;50.808;4.402;2023-09-19T15:12:10;5.95;;;1.15;;
41875;SDS011;27555;50.808;4.402;2023-09-19T15:14:39;5.07;;;1.13;;
41875;SDS011;27555;50.808;4.402;2023-09-19T15:17:06;6.07;;;1.50;;
41875;SDS011;27555;50.808;4.402;2023-09-19T15:19:32;5.70;;;1.63;;
41875;SDS011;27555;50.808;4.402;2023-09-19T15:21:58;5.55;;;1.85;;
41875;SDS011;27555;50.808;4.402;2023-09-19T15:24:23;9.00;;;1.25;;
41875;SDS011;27555;50.808;4.402;2023-09-19T15:26:51;5.55;;;1.10;;
41875;SDS011;27555;50.808;4.402;2023-09-19T15:29:17;7.90;;;1.52;;
41875;SDS011;27555;50.808;4.402;2023-09-19T15:31:44;8.63;;;1.48;;
41875;SDS011;27555;50.808;4.402;2023-09-19T15:34:10;9.93;;;1.30;;
41875;SDS011;27555;50.808;4.402;2023-09-19T15:36:39;16.80;;;1.25;;
41875;SDS011;27555;50.808;4.402;2023-09-19T15:39:07;5.38;;;1.48;;
41875;SDS011;27555;50.808;4.402;2023-09-19T15:41:39;4.53;;;1.38;;
41875;SDS011;27555;50.808;4.402;2023-09-19T15:44:15;5.00;;;1.33;;
41875;SDS011;27555;50.808;4.402;2023-09-19T15:46:42;3.88;;;1.25;;
41875;SDS011;27555;50.808;4.402;2023-09-19T15:49:09;4.53;;;1.02;;
41875;SDS011;27555;50.808;4.402;2023-09-19T15:51:35;8.23;;;1.35;;
41875;SDS011;27555;50.808;4.402;2023-09-19T15:54:01;7.63;;;0.95;;
41875;SDS011;27555;50.808;4.402;2023-09-19T15:56:33;6.05;;;1.25;;